createdAt,value
2022-09-05T00:01:43.642Z,97642.88
2022-09-05T00:04:25.408Z,97625.69
2022-09-05T00:07:02.891Z,97640.38
2022-09-05T00:09:57.271Z,97643.81
2022-09-05T00:12:25.683Z,97631.78
2022-09-05T00:15:17.185Z,97628.19
2022-09-05T00:20:40.685Z,97629.16
2022-09-05T00:24:27.974Z,97629.88
2022-09-05T00:24:45.726Z,97641.59
2022-09-05T00:26:57.124Z,97631.25
2022-09-05T00:30:53.894Z,97629.47
2022-09-05T00:32:43.029Z,97635.44
2022-09-05T00:35:28.858Z,97623.59
2022-09-05T00:37:59.542Z,97627.06
2022-09-05T00:40:33.555Z,97631.56
2022-09-05T00:43:05.893Z,97633.44
2022-09-05T00:45:38.714Z,97633.34
2022-09-05T00:48:20.562Z,97623.91
2022-09-05T00:51:11.962Z,97626.75
2022-09-05T00:53:50.323Z,97625.81
2022-09-05T00:56:37.611Z,97629.25
2022-09-05T00:59:56.639Z,97631.56
2022-09-05T01:02:53.090Z,97625.50
2022-09-05T01:05:36.166Z,97636.91
2022-09-05T01:08:28.026Z,97630.75
2022-09-05T01:11:04.882Z,97625.72
2022-09-05T01:13:42.545Z,97631.88
2022-09-05T01:16:22.154Z,97626.13
2022-09-05T01:19:00.435Z,97628.84
2022-09-05T01:21:51.535Z,97635.94
2022-09-05T01:24:42.547Z,97635.75
2022-09-05T01:28:47.579Z,97628.41
2022-09-05T01:30:43.923Z,97632.81
2022-09-05T01:33:24.854Z,97633.63
2022-09-05T01:36:07.610Z,97635.31
2022-09-05T01:39:15.233Z,97634.69
2022-09-05T01:41:38.753Z,97644.19
2022-09-05T01:44:17.500Z,97637.41
2022-09-05T01:46:59.365Z,97647.88
2022-09-05T01:49:42.721Z,97648.69
2022-09-05T01:52:24.002Z,97641.97
2022-09-05T01:55:07.011Z,97644.56
2022-09-05T01:57:44.627Z,97651.78
2022-09-05T02:00:17.165Z,97640.50
2022-09-05T02:03:01.709Z,97637.13
2022-09-05T02:05:50.275Z,97641.63
2022-09-05T02:08:39.616Z,97633.69
2022-09-05T02:11:10.799Z,97627.63
2022-09-05T02:13:59.240Z,97630.16
2022-09-05T02:16:41.243Z,97631.91
2022-09-05T02:19:15.991Z,97630.25
2022-09-05T02:21:56.203Z,97637.34
2022-09-05T02:24:33.571Z,97629.06
2022-09-05T02:27:43.548Z,97635.03
2022-09-05T02:30:07.130Z,97628.34
2022-09-05T02:32:48.288Z,97633.88
2022-09-05T02:35:24.834Z,97629.13
2022-09-05T02:38:31.709Z,97624.94
2022-09-05T02:45:08.057Z,97619.09
2022-09-05T02:45:20.532Z,97619.09
2022-09-05T02:46:45.848Z,97615.63
2022-09-05T02:50:28.247Z,97615.72
2022-09-05T02:57:28.390Z,97615.72
2022-09-05T02:57:43.481Z,97606.31
2022-09-05T02:58:07.147Z,97613.91
2022-09-05T03:00:43.364Z,97617.03
2022-09-05T03:03:19.780Z,97616.47
2022-09-05T03:05:56.656Z,97610.50
2022-09-05T03:08:44.030Z,97621.78
2022-09-05T03:11:59.151Z,97618.25
2022-09-05T03:15:22.285Z,97616.28
2022-09-05T03:18:21.123Z,97607.59
2022-09-05T03:21:38.434Z,97610.41
2022-09-05T03:25:04.518Z,97616.28
2022-09-05T03:28:13.405Z,97613.13
2022-09-05T03:30:59.815Z,97606.41
2022-09-05T03:34:00.474Z,97602.13
2022-09-05T03:36:57.581Z,97614.34
2022-09-05T03:40:16.042Z,97611.81
2022-09-05T03:43:19.845Z,97604.28
2022-09-05T03:46:02.461Z,97600.00
2022-09-05T03:49:58.020Z,97607.84
2022-09-05T03:57:12.996Z,97605.34
2022-09-05T03:57:23.976Z,97601.66
2022-09-05T03:58:55.943Z,97602.53
2022-09-05T04:04:14.252Z,97598.88
2022-09-05T04:08:18.450Z,97591.69
2022-09-05T04:08:20.564Z,97579.44
2022-09-05T04:10:24.516Z,97589.81
2022-09-05T04:12:58.315Z,97594.09
2022-09-05T04:15:33.063Z,97594.59
2022-09-05T04:18:04.734Z,97587.25
2022-09-05T04:20:40.870Z,97602.06
2022-09-05T04:23:25.042Z,97603.41
2022-09-05T04:26:11.473Z,97603.69
2022-09-05T04:28:53.617Z,97608.16
2022-09-05T04:31:30.969Z,97602.75
2022-09-05T04:34:19.047Z,97613.19
2022-09-05T04:36:58.739Z,97609.84
2022-09-05T04:39:27.771Z,97616.94
2022-09-05T04:42:07.214Z,97622.56
2022-09-05T04:44:38.404Z,97633.09
2022-09-05T04:47:14.271Z,97632.50
2022-09-05T04:49:49.557Z,97638.50
2022-09-05T04:52:50.096Z,97645.28
2022-09-05T04:55:22.194Z,97647.53
2022-09-05T04:57:55.615Z,97641.81
2022-09-05T05:06:03.698Z,97639.88
2022-09-05T05:06:16.464Z,97631.75
2022-09-05T05:06:43.941Z,97637.50
2022-09-05T05:09:20.188Z,97634.72
2022-09-05T05:18:01.024Z,97641.44
2022-09-05T05:18:08.955Z,97647.19
2022-09-05T05:18:13.923Z,97637.75
2022-09-05T05:20:42.355Z,97657.09
2022-09-05T05:23:15.708Z,97662.22
2022-09-05T05:25:48.027Z,97657.63
2022-09-05T05:28:25.353Z,97660.78
2022-09-05T05:30:54.071Z,97657.88
2022-09-05T05:33:32.579Z,97655.94
2022-09-05T05:36:01.980Z,97658.03
2022-09-05T05:38:38.903Z,97650.66
2022-09-05T05:41:17.557Z,97654.44
2022-09-05T05:43:46.745Z,97660.22
2022-09-05T05:46:23.865Z,97664.28
2022-09-05T05:48:57.260Z,97673.53
2022-09-05T05:52:02.168Z,97675.72
2022-09-05T05:54:35.442Z,97670.81
2022-09-05T05:57:28.587Z,97672.25
2022-09-05T06:00:04.516Z,97667.44
2022-09-05T06:03:26.487Z,97672.16
2022-09-05T06:06:08.285Z,97665.59
2022-09-05T06:14:50.623Z,97665.06
2022-09-05T06:14:58.421Z,97668.09
2022-09-05T06:15:37.179Z,97667.59
2022-09-05T06:18:46.315Z,97661.00
2022-09-05T06:22:09.973Z,97670.09
2022-09-05T06:25:33.804Z,97660.88
2022-09-05T06:28:19.246Z,97665.50
2022-09-05T06:31:29.309Z,97663.47
2022-09-05T06:33:56.452Z,97661.28
2022-09-05T06:36:39.214Z,97660.88
2022-09-05T06:39:16.239Z,97652.56
2022-09-05T06:41:57.771Z,97648.66
2022-09-05T06:45:26.930Z,97660.91
2022-09-05T06:47:56.980Z,97650.94
2022-09-05T06:50:54.636Z,97657.63
2022-09-05T06:53:50.986Z,97667.16
2022-09-05T06:56:49.225Z,97661.25
2022-09-05T06:59:44.374Z,97670.38
2022-09-05T07:02:42.704Z,97664.56
2022-09-05T07:05:44.667Z,97668.28
2022-09-05T07:08:36.167Z,97665.81
2022-09-05T07:11:16.539Z,97663.81
2022-09-05T07:14:03.180Z,97666.72
2022-09-05T07:16:40.614Z,97659.94
2022-09-05T07:19:23.772Z,97667.13
2022-09-05T07:22:04.939Z,97666.34
2022-09-05T07:24:54.422Z,97664.19
2022-09-05T07:27:33.901Z,97663.50
2022-09-05T07:30:22.342Z,97669.75
2022-09-05T07:32:53.658Z,97675.84
2022-09-05T07:35:27.648Z,97675.97
2022-09-05T07:38:03.681Z,97672.50
2022-09-05T07:40:35.426Z,97669.53
2022-09-05T07:43:09.255Z,97671.69
2022-09-05T07:45:56.154Z,97680.88
2022-09-05T07:48:34.327Z,97677.31
2022-09-05T07:54:45.328Z,97682.78
2022-09-05T07:57:00.665Z,97686.59
2022-09-05T07:57:22.681Z,97681.09
2022-09-05T07:59:37.911Z,97683.13
2022-09-05T08:02:09.011Z,97674.38
2022-09-05T08:04:38.638Z,97674.84
2022-09-05T08:07:49.191Z,97680.09
2022-09-05T08:10:06.456Z,97670.50
2022-09-05T08:13:23.022Z,97678.03
2022-09-05T08:16:11.050Z,97674.44
2022-09-05T08:18:23.162Z,97677.03
2022-09-05T08:20:55.374Z,97667.53
2022-09-05T08:23:41.643Z,97668.94
2022-09-05T08:26:12.864Z,97665.56
2022-09-05T08:28:54.013Z,97665.63
2022-09-05T08:31:25.236Z,97668.34
2022-09-05T08:33:56.290Z,97662.72
2022-09-05T08:36:30.713Z,97663.53
2022-09-05T08:39:02.413Z,97660.81
2022-09-05T08:41:51.252Z,97662.53
2022-09-05T08:46:39.202Z,97660.63
2022-09-05T08:47:26.737Z,97656.22
2022-09-05T08:50:26.972Z,97652.94
2022-09-05T08:53:26.334Z,97645.31
2022-09-05T08:56:04.522Z,97662.41
2022-09-05T08:58:50.000Z,97647.28
2022-09-05T09:02:00.700Z,97645.63
2022-09-05T09:05:01.793Z,97641.50
2022-09-05T09:07:51.686Z,97641.38
2022-09-05T09:10:34.879Z,97636.66
2022-09-05T09:13:30.155Z,97640.56
2022-09-05T09:16:05.536Z,97646.25
2022-09-05T09:19:01.432Z,97641.56
2022-09-05T09:21:39.107Z,97639.19
2022-09-05T09:24:22.759Z,97636.28
2022-09-05T09:26:56.357Z,97638.63
2022-09-05T09:29:26.648Z,97633.34
2022-09-05T09:32:01.870Z,97640.31
2022-09-05T09:34:47.159Z,97639.72
2022-09-05T09:37:48.260Z,97641.41
2022-09-05T09:40:37.621Z,97643.22
2022-09-05T09:43:12.032Z,97632.78
2022-09-05T09:45:56.928Z,97634.47
2022-09-05T09:48:36.076Z,97633.63
2022-09-05T09:51:31.943Z,97637.31
2022-09-05T09:54:12.018Z,97627.59
2022-09-05T09:57:20.743Z,97632.56
2022-09-05T10:00:06.276Z,97628.25
2022-09-05T10:08:10.697Z,97621.56
2022-09-05T10:10:39.331Z,97625.88
2022-09-05T10:10:53.554Z,97624.91
2022-09-05T10:15:21.002Z,97621.25
2022-09-05T10:18:24.718Z,97612.63
2022-09-05T10:21:25.747Z,97609.69
2022-09-05T10:24:40.454Z,97612.19
2022-09-05T10:27:39.215Z,97595.91
2022-09-05T10:30:41.858Z,97605.31
2022-09-05T10:35:14.559Z,97596.44
2022-09-05T10:36:25.917Z,97600.25
2022-09-05T10:39:13.499Z,97591.06
2022-09-05T10:41:48.043Z,97594.22
2022-09-05T10:44:17.783Z,97595.22
2022-09-05T10:46:58.726Z,97596.06
2022-09-05T10:49:30.990Z,97597.72
2022-09-05T10:52:08.398Z,97593.09
2022-09-05T10:55:14.261Z,97589.50
2022-09-05T10:57:57.912Z,97602.59
2022-09-05T11:02:26.702Z,97589.22
2022-09-05T11:03:46.799Z,97585.13
2022-09-05T11:06:17.680Z,97578.72
2022-09-05T11:09:03.646Z,97587.63
2022-09-05T11:11:40.825Z,97583.19
2022-09-05T11:14:29.731Z,97581.72
2022-09-05T11:17:05.318Z,97583.78
2022-09-05T11:19:42.078Z,97579.38
2022-09-05T11:22:23.633Z,97579.59
2022-09-05T11:24:55.271Z,97573.25
2022-09-05T11:27:30.999Z,97576.56
2022-09-05T11:30:04.560Z,97578.91
2022-09-05T11:39:47.494Z,97569.31
2022-09-05T11:39:59.003Z,97575.59
2022-09-05T11:40:03.884Z,97580.38
2022-09-05T11:42:08.231Z,97583.84
2022-09-05T11:44:46.590Z,97579.91
2022-09-05T11:47:55.942Z,97569.31
2022-09-05T11:50:58.500Z,97564.16
2022-09-05T11:53:53.939Z,97568.16
2022-09-05T11:56:48.320Z,97567.34
2022-09-05T11:59:44.967Z,97566.72
2022-09-05T12:05:59.201Z,97562.47
2022-09-05T12:08:36.841Z,97558.59
2022-09-05T12:11:18.484Z,97552.22
2022-09-05T12:13:51.263Z,97555.91
2022-09-05T12:16:27.042Z,97551.63
2022-09-05T12:19:18.993Z,97551.00
2022-09-05T12:22:10.238Z,97545.41
2022-09-05T12:25:26.431Z,97543.41
2022-09-05T12:27:55.835Z,97537.13
2022-09-05T12:31:00.480Z,97536.31
2022-09-05T12:36:04.945Z,97536.63
2022-09-05T12:39:52.162Z,97532.97
2022-09-05T12:41:33.193Z,97526.22
2022-09-05T12:42:40.576Z,97523.25
2022-09-05T12:45:27.173Z,97531.03
2022-09-05T12:48:11.574Z,97525.56
2022-09-05T12:50:40.902Z,97518.75
2022-09-05T12:53:11.290Z,97528.69
2022-09-05T12:55:49.423Z,97527.22
2022-09-05T13:02:55.689Z,97516.25
2022-09-05T13:03:06.315Z,97516.28
2022-09-05T13:04:24.059Z,97518.63
2022-09-05T13:07:00.599Z,97509.03
2022-09-05T13:09:47.858Z,97516.13
2022-09-05T13:14:54.125Z,97517.47
2022-09-05T13:15:23.673Z,97513.44
2022-09-05T13:17:58.920Z,97501.56
2022-09-05T13:20:29.346Z,97497.22
2022-09-05T13:22:56.693Z,97501.22
2022-09-05T13:25:27.356Z,97501.06
2022-09-05T13:28:02.127Z,97497.41
2022-09-05T13:34:37.781Z,97499.75
2022-09-05T13:37:58.606Z,97489.81
2022-09-05T13:38:13.808Z,97504.88
2022-09-05T13:39:06.584Z,97492.97
2022-09-05T13:41:37.805Z,97496.44
2022-09-05T13:44:27.165Z,97490.97
2022-09-05T13:47:00.643Z,97478.91
2022-09-05T13:49:32.580Z,97475.09
2022-09-05T13:52:21.657Z,97481.72
2022-09-05T13:54:54.647Z,97474.13
2022-09-05T13:57:40.997Z,97471.63
2022-09-05T14:00:40.751Z,97471.44
2022-09-05T14:03:40.204Z,97470.63
2022-09-05T14:06:47.140Z,97467.16
2022-09-05T14:09:38.623Z,97460.19
2022-09-05T14:12:15.849Z,97459.53
2022-09-05T14:17:54.439Z,97444.78
2022-09-05T14:20:28.010Z,97444.63
2022-09-05T14:23:05.667Z,97444.63
2022-09-05T14:25:39.159Z,97452.38
2022-09-05T14:28:12.791Z,97447.41
2022-09-05T14:33:13.834Z,97455.19
2022-09-05T14:37:43.110Z,97452.53
2022-09-05T14:37:55.342Z,97448.25
2022-09-05T14:40:00.812Z,97443.44
2022-09-05T14:43:01.955Z,97441.44
2022-09-05T14:45:52.972Z,97444.63
2022-09-05T14:48:56.615Z,97445.31
2022-09-05T14:51:46.080Z,97441.69
2022-09-05T15:02:38.469Z,97443.69
2022-09-05T15:02:42.006Z,97435.34
2022-09-05T15:03:02.417Z,97441.69
2022-09-05T15:05:40.301Z,97436.66
2022-09-05T15:09:42.170Z,97441.28
2022-09-05T15:12:15.947Z,97435.97
2022-09-05T15:13:59.717Z,97429.03
2022-09-05T15:16:27.480Z,97428.19
2022-09-05T15:18:54.721Z,97424.72
2022-09-05T15:21:33.755Z,97415.59
2022-09-05T15:24:21.324Z,97419.91
2022-09-05T15:26:53.309Z,97418.25
2022-09-05T15:29:24.391Z,97415.59
2022-09-05T15:31:57.593Z,97414.09
2022-09-05T15:34:36.337Z,97409.78
2022-09-05T15:37:22.578Z,97412.44
2022-09-05T15:40:01.489Z,97423.72
2022-09-05T15:42:31.812Z,97422.56
2022-09-05T15:45:09.686Z,97420.72
2022-09-05T15:47:44.758Z,97417.09
2022-09-05T15:50:22.028Z,97412.75
2022-09-05T15:52:55.737Z,97416.91
2022-09-05T15:55:26.942Z,97414.44
2022-09-05T15:57:57.106Z,97408.31
2022-09-05T16:00:39.565Z,97402.84
2022-09-05T16:04:25.014Z,97411.63
2022-09-05T16:10:28.383Z,97404.00
2022-09-05T16:10:59.084Z,97405.28
2022-09-05T16:14:39.779Z,97399.81
2022-09-05T16:23:11.975Z,97402.81
2022-09-05T16:23:32.897Z,97404.81
2022-09-05T16:23:34.528Z,97393.19
2022-09-05T16:26:06.562Z,97404.97
2022-09-05T16:28:41.795Z,97407.09
2022-09-05T16:31:15.712Z,97396.66
2022-09-05T16:33:44.462Z,97402.28
2022-09-05T16:36:16.807Z,97389.19
2022-09-05T16:38:50.491Z,97390.53
2022-09-05T16:41:24.618Z,97393.50
2022-09-05T16:43:59.066Z,97392.81
2022-09-05T16:46:34.800Z,97389.66
2022-09-05T16:49:09.281Z,97394.47
2022-09-05T16:51:43.867Z,97397.28
2022-09-05T16:54:20.670Z,97394.78
2022-09-05T16:56:52.321Z,97400.41
2022-09-05T16:59:24.517Z,97400.56
2022-09-05T17:02:07.660Z,97397.59
2022-09-05T17:05:04.382Z,97398.06
2022-09-05T17:07:47.899Z,97408.13
2022-09-05T17:10:18.856Z,97405.16
2022-09-05T17:12:46.898Z,97402.94
2022-09-05T17:15:19.251Z,97399.94
2022-09-05T17:18:22.435Z,97396.75
2022-09-05T17:20:47.240Z,97389.28
2022-09-05T17:27:51.162Z,97393.28
2022-09-05T17:29:27.605Z,97399.34
2022-09-05T17:29:48.872Z,97407.09
2022-09-05T17:31:59.955Z,97415.66
2022-09-05T17:34:46.448Z,97416.00
2022-09-05T17:37:27.676Z,97405.19
2022-09-05T17:40:04.084Z,97402.84
2022-09-05T17:42:42.097Z,97404.97
2022-09-05T17:45:17.199Z,97398.47
2022-09-05T17:47:49.130Z,97403.28
2022-09-05T17:50:19.405Z,97395.78
2022-09-05T17:53:26.113Z,97388.47
2022-09-05T17:56:09.783Z,97394.38
2022-09-05T17:58:50.237Z,97405.56
2022-09-05T18:01:20.554Z,97398.06
2022-09-05T18:04:16.833Z,97407.44
2022-09-05T18:06:59.728Z,97395.69
2022-09-05T18:09:51.248Z,97409.22
2022-09-05T18:13:11.662Z,97416.59
2022-09-05T18:15:19.265Z,97415.25
2022-09-05T18:18:02.617Z,97416.53
2022-09-05T18:20:44.770Z,97409.91
2022-09-05T18:23:43.807Z,97417.13
2022-09-05T18:26:20.977Z,97424.56
2022-09-05T18:28:59.266Z,97425.38
2022-09-05T18:31:59.095Z,97417.91
2022-09-05T18:34:47.347Z,97422.66
2022-09-05T18:37:50.246Z,97423.78
2022-09-05T18:41:01.032Z,97417.16
2022-09-05T18:43:40.074Z,97413.97
2022-09-05T18:46:22.475Z,97423.72
2022-09-05T18:50:22.290Z,97425.84
2022-09-05T18:51:56.657Z,97420.84
2022-09-05T18:54:27.015Z,97428.06
2022-09-05T18:57:24.162Z,97419.47
2022-09-05T18:59:54.026Z,97421.28
2022-09-05T19:02:33.408Z,97437.81
2022-09-05T19:05:28.401Z,97437.81
2022-09-05T19:08:00.221Z,97450.22
2022-09-05T19:10:35.592Z,97442.44
2022-09-05T19:13:12.310Z,97433.94
2022-09-05T19:15:48.641Z,97446.78
2022-09-05T19:18:26.090Z,97448.47
2022-09-05T19:21:11.947Z,97454.19
2022-09-05T19:23:52.494Z,97457.41
2022-09-05T19:26:22.308Z,97462.53
2022-09-05T19:36:48.647Z,97474.97
2022-09-05T19:36:57.983Z,97463.91
2022-09-05T19:37:23.826Z,97458.22
2022-09-05T19:37:44.507Z,97463.66
2022-09-05T19:46:00.794Z,97460.34
2022-09-05T19:47:34.260Z,97463.13
2022-09-05T19:47:35.723Z,97447.00
2022-09-05T19:49:04.808Z,97448.38
2022-09-05T19:51:33.773Z,97436.16
2022-09-05T19:54:04.852Z,97437.81
2022-09-05T19:56:37.880Z,97437.00
2022-09-05T19:59:19.196Z,97436.59
2022-09-05T20:01:48.011Z,97444.13
2022-09-05T20:04:15.530Z,97456.63
2022-09-05T20:06:43.136Z,97447.91
2022-09-05T20:09:15.470Z,97453.59
2022-09-05T20:11:46.827Z,97450.81
2022-09-05T20:14:32.665Z,97444.16
2022-09-05T20:17:18.073Z,97449.72
2022-09-05T20:19:45.778Z,97456.94
2022-09-05T20:22:46.801Z,97436.28
2022-09-05T20:25:09.191Z,97431.00
2022-09-05T20:27:47.721Z,97441.53
2022-09-05T20:30:21.020Z,97432.66
2022-09-05T20:32:54.939Z,97431.00
2022-09-05T20:40:51.219Z,97435.69
2022-09-05T20:43:24.930Z,97436.81
2022-09-05T20:43:28.332Z,97433.63
2022-09-05T20:44:00.437Z,97434.88
2022-09-05T20:53:08.377Z,97438.66
2022-09-05T20:54:19.062Z,97443.50
2022-09-05T20:54:28.651Z,97441.56
2022-09-05T20:55:39.038Z,97448.22
2022-09-05T20:58:09.327Z,97436.72
2022-09-05T21:00:41.157Z,97441.03
2022-09-05T21:03:31.646Z,97444.63
2022-09-05T21:06:10.431Z,97437.81
2022-09-05T21:08:38.313Z,97436.97
2022-09-05T21:11:07.434Z,97439.34
2022-09-05T21:13:37.118Z,97440.44
2022-09-05T21:16:18.502Z,97444.06
2022-09-05T21:18:51.527Z,97445.03
2022-09-05T21:21:28.607Z,97441.28
2022-09-05T21:24:08.922Z,97438.22
2022-09-05T21:26:48.898Z,97456.69
2022-09-05T21:29:24.967Z,97447.94
2022-09-05T21:32:00.483Z,97446.41
2022-09-05T21:34:33.357Z,97444.59
2022-09-05T21:37:07.355Z,97449.88
2022-09-05T21:39:39.414Z,97454.72
2022-09-05T21:42:32.867Z,97446.41
2022-09-05T21:47:41.945Z,97439.88
2022-09-05T21:47:55.993Z,97436.69
2022-09-05T21:50:30.585Z,97435.16
2022-09-05T21:53:52.399Z,97426.28
2022-09-05T21:59:15.336Z,97431.81
2022-09-05T21:59:28.485Z,97423.50
2022-09-05T22:01:51.139Z,97420.28
2022-09-05T22:04:12.784Z,97424.59
2022-09-05T22:06:41.609Z,97420.41
2022-09-05T22:09:13.661Z,97423.03
2022-09-05T22:11:41.645Z,97428.31
2022-09-05T22:14:09.239Z,97413.75
2022-09-05T22:16:40.018Z,97416.66
2022-09-05T22:19:12.920Z,97421.22
2022-09-05T22:21:41.644Z,97406.66
2022-09-05T22:24:12.645Z,97411.22
2022-09-05T22:27:10.901Z,97417.28
2022-09-05T22:29:30.911Z,97412.84
2022-09-05T22:31:57.985Z,97415.72
2022-09-05T22:34:25.446Z,97414.78
2022-09-05T22:36:54.213Z,97413.09
2022-09-05T22:39:36.347Z,97408.69
2022-09-05T22:42:07.572Z,97400.47
2022-09-05T22:44:39.325Z,97403.50
2022-09-05T22:47:07.439Z,97389.53
2022-09-05T22:49:34.948Z,97401.00
2022-09-05T22:52:04.895Z,97396.84
2022-09-05T22:54:32.343Z,97393.78
2022-09-05T22:56:59.754Z,97402.53
2022-09-05T22:59:26.937Z,97397.25
2022-09-05T23:01:54.580Z,97394.06
2022-09-05T23:04:21.986Z,97392.25
2022-09-05T23:06:50.124Z,97391.69
2022-09-05T23:09:19.760Z,97391.97
2022-09-05T23:11:47.073Z,97391.50
2022-09-05T23:14:14.541Z,97387.50
2022-09-05T23:16:42.083Z,97394.41
2022-09-05T23:19:09.515Z,97395.38
2022-09-05T23:21:36.956Z,97394.41
2022-09-05T23:24:04.588Z,97389.28
2022-09-05T23:26:33.763Z,97378.88
2022-09-05T23:29:01.353Z,97380.44
2022-09-05T23:31:29.172Z,97380.56
2022-09-05T23:33:56.339Z,97378.19
2022-09-05T23:36:24.151Z,97381.09
2022-09-05T23:38:53.921Z,97376.78
2022-09-05T23:41:21.700Z,97387.75
2022-09-05T23:43:52.181Z,97380.13
2022-09-05T23:46:19.179Z,97375.56
2022-09-05T23:48:46.409Z,97368.22
2022-09-05T23:51:14.394Z,97369.34
2022-09-05T23:53:42.340Z,97372.50
2022-09-05T23:56:11.338Z,97366.53
2022-09-05T23:58:38.724Z,97365.81
